Time;durP1;ratioP1;P1;durP2;ratioP2;P2;SDS_P1;SDS_P2;PMS_P1;PMS_P2;Temp;Humidity;BMP_temperature;BMP_pressure;BME280_temperature;BME280_humidity;BME280_pressure;Samples;Min_cycle;Max_cycle;Signal;HPM_P1;HPM_P2
2021/06/26 00:01:43;;;;;;;5.60;5.05;;;20.60;61.10;;;;;;5052828;28;20171;-65
2021/06/26 00:04:10;;;;;;;6.07;5.50;;;20.60;62.00;;;;;;5053650;28;20171;-65
2021/06/26 00:06:36;;;;;;;4.60;4.20;;;20.60;61.10;;;;;;5053376;28;20237;-65
2021/06/26 00:09:01;;;;;;;5.60;5.20;;;20.60;61.20;;;;;;5052729;28;20196;-64
2021/06/26 00:11:27;;;;;;;5.18;4.68;;;20.60;61.10;;;;;;5019081;28;20258;-65
2021/06/26 00:13:52;;;;;;;5.70;5.20;;;20.60;61.10;;;;;;5053271;28;20178;-65
2021/06/26 00:16:18;;;;;;;5.38;4.97;;;20.50;61.00;;;;;;5052683;28;20213;-65
2021/06/26 00:18:43;;;;;;;5.80;5.20;;;20.50;61.10;;;;;;5052941;28;20669;-65
2021/06/26 00:21:10;;;;;;;6.13;5.63;;;20.60;61.10;;;;;;5052439;28;20266;-65
2021/06/26 00:23:35;;;;;;;5.85;5.35;;;20.60;61.10;;;;;;5052865;28;20179;-65
2021/06/26 00:26:01;;;;;;;5.88;5.32;;;20.60;61.10;;;;;;5053345;28;20561;-63
2021/06/26 00:28:26;;;;;;;5.63;5.13;;;20.60;61.20;;;;;;5052275;28;20637;-65
2021/06/26 00:30:52;;;;;;;5.57;5.07;;;20.50;61.10;;;;;;5052661;28;20234;-64
2021/06/26 00:33:17;;;;;;;5.05;4.65;;;20.50;61.10;;;;;;5053008;28;20171;-65
2021/06/26 00:35:42;;;;;;;5.63;5.20;;;20.60;61.10;;;;;;5051901;28;20233;-66
2021/06/26 00:38:08;;;;;;;5.70;5.25;;;20.50;61.10;;;;;;5052775;28;20634;-66
2021/06/26 00:40:33;;;;;;;6.20;5.05;;;20.50;61.10;;;;;;5052646;28;20183;-66
2021/06/26 00:42:59;;;;;;;5.80;5.15;;;20.50;61.10;;;;;;5052057;28;20178;-66
2021/06/26 00:45:25;;;;;;;6.03;5.53;;;20.50;61.10;;;;;;5052958;28;20202;-65
2021/06/26 00:47:50;;;;;;;5.30;4.90;;;20.50;61.10;;;;;;5052504;28;20218;-65
2021/06/26 00:50:22;;;;;;;6.70;5.22;;;20.50;61.10;;;;;;5052084;28;20599;-65
2021/06/26 00:52:48;;;;;;;5.38;4.88;;;20.50;61.10;;;;;;5052334;28;20171;-65
2021/06/26 00:55:13;;;;;;;5.25;4.85;;;20.50;61.10;;;;;;5052785;28;20221;-65
2021/06/26 00:57:44;;;;;;;5.88;5.38;;;20.50;61.10;;;;;;5051325;28;20261;-65
2021/06/26 01:00:10;;;;;;;5.63;5.13;;;20.50;61.10;;;;;;5052669;28;20187;-65
2021/06/26 01:02:35;;;;;;;5.13;4.72;;;20.50;61.20;;;;;;5052282;28;20634;-65
2021/06/26 01:05:01;;;;;;;5.75;5.25;;;20.50;61.20;;;;;;5051729;28;20171;-65
2021/06/26 01:07:26;;;;;;;5.78;5.25;;;20.50;62.10;;;;;;5052360;28;20229;-64
2021/06/26 01:09:52;;;;;;;5.53;5.13;;;20.50;61.20;;;;;;5052297;28;20272;-65
2021/06/26 01:12:17;;;;;;;5.40;4.90;;;20.50;61.20;;;;;;5051745;28;20167;-65
2021/06/26 01:14:43;;;;;;;5.43;5.03;;;20.40;61.10;;;;;;5052088;28;20292;-66
2021/06/26 01:17:09;;;;;;;5.70;5.18;;;20.50;61.20;;;;;;5052547;28;20167;-65
2021/06/26 01:19:35;;;;;;;5.22;4.82;;;20.50;61.30;;;;;;5051276;28;20251;-65
2021/06/26 01:22:07;;;;;;;5.57;5.18;;;20.40;61.20;;;;;;5052394;28;20282;-65
2021/06/26 01:24:33;;;;;;;5.10;4.70;;;20.40;61.10;;;;;;5051102;28;20582;-64
2021/06/26 01:26:59;;;;;;;5.93;5.43;;;20.40;61.20;;;;;;5052100;28;20182;-64
2021/06/26 01:29:25;;;;;;;5.65;5.15;;;20.50;61.20;;;;;;5052096;28;20230;-64
2021/06/26 01:31:51;;;;;;;5.25;4.75;;;20.40;61.30;;;;;;5051174;28;20178;-65
2021/06/26 01:34:16;;;;;;;5.50;5.10;;;20.40;61.30;;;;;;5051809;28;20179;-66
2021/06/26 01:36:42;;;;;;;5.35;4.95;;;20.40;61.30;;;;;;5051883;28;20186;-66
2021/06/26 01:39:07;;;;;;;5.35;4.95;;;20.40;61.30;;;;;;5051232;28;20175;-66
2021/06/26 01:41:33;;;;;;;5.32;4.90;;;20.40;61.20;;;;;;5051612;28;20715;-66
2021/06/26 01:43:59;;;;;;;5.95;5.35;;;20.40;61.30;;;;;;5051832;28;20175;-65
2021/06/26 01:46:24;;;;;;;5.20;4.70;;;20.40;61.30;;;;;;5051472;28;20183;-65
2021/06/26 01:48:50;;;;;;;5.32;4.93;;;20.40;61.30;;;;;;5051504;28;20175;-65
2021/06/26 01:51:15;;;;;;;5.47;5.05;;;20.40;61.40;;;;;;5051970;28;20167;-65
2021/06/26 01:53:42;;;;;;;5.00;4.50;;;20.40;61.30;;;;;;5051016;28;20229;-65
2021/06/26 01:56:08;;;;;;;5.07;4.68;;;20.40;61.30;;;;;;5051509;28;20560;-65
2021/06/26 01:58:33;;;;;;;5.47;4.97;;;20.40;61.30;;;;;;5051456;28;20175;-65
2021/06/26 02:00:59;;;;;;;6.25;5.65;;;20.40;61.30;;;;;;5050975;28;20178;-65
2021/06/26 02:03:24;;;;;;;5.25;4.85;;;20.40;61.30;;;;;;5051632;28;20202;-65
2021/06/26 02:05:50;;;;;;;5.82;5.32;;;20.40;61.20;;;;;;5051236;28;20194;-65
2021/06/26 02:08:15;;;;;;;5.50;5.00;;;20.40;61.30;;;;;;5051243;28;20183;-64
2021/06/26 02:10:41;;;;;;;4.85;4.45;;;20.40;61.30;;;;;;5055579;28;20284;-65
2021/06/26 02:13:06;;;;;;;5.35;4.95;;;20.40;61.30;;;;;;5055775;28;20167;-65
2021/06/26 02:15:32;;;;;;;5.30;4.90;;;20.40;61.30;;;;;;5054581;28;20579;-65
2021/06/26 02:17:57;;;;;;;5.28;4.78;;;20.40;61.30;;;;;;5055568;28;20178;-65
2021/06/26 02:20:23;;;;;;;5.82;5.32;;;20.30;61.20;;;;;;5055425;28;20171;-64
2021/06/26 02:22:48;;;;;;;4.85;4.50;;;20.40;61.30;;;;;;5054709;28;20171;-64
2021/06/26 02:25:15;;;;;;;5.97;5.28;;;20.30;61.20;;;;;;5055651;28;20183;-64
2021/06/26 02:27:40;;;;;;;5.13;4.72;;;20.40;61.20;;;;;;5054362;28;20670;-64
2021/06/26 02:30:06;;;;;;;5.07;4.60;;;20.40;61.30;;;;;;5055200;28;20240;-64
2021/06/26 02:32:32;;;;;;;5.13;4.72;;;20.30;61.20;;;;;;5054987;28;20179;-64
2021/06/26 02:34:57;;;;;;;4.78;4.35;;;20.40;61.20;;;;;;5054782;28;20206;-66
2021/06/26 02:37:23;;;;;;;5.35;4.68;;;20.30;61.10;;;;;;5055264;28;20574;-66
2021/06/26 02:39:49;;;;;;;5.15;4.75;;;20.30;61.20;;;;;;5054974;28;20637;-66
2021/06/26 02:42:14;;;;;;;4.93;4.53;;;20.30;61.10;;;;;;5054597;28;20534;-66
2021/06/26 02:44:40;;;;;;;5.55;5.05;;;20.30;61.20;;;;;;5054771;28;20179;-65
2021/06/26 02:47:05;;;;;;;5.40;5.00;;;20.30;61.10;;;;;;5054857;28;20182;-65
2021/06/26 02:49:31;;;;;;;5.30;4.90;;;20.30;61.20;;;;;;5054056;28;20186;-65
2021/06/26 02:51:56;;;;;;;5.07;4.68;;;20.30;61.20;;;;;;5055056;28;20171;-65
2021/06/26 02:54:22;;;;;;;4.95;4.55;;;20.30;61.10;;;;;;5054907;28;20183;-64
2021/06/26 02:56:47;;;;;;;5.50;5.10;;;20.30;61.10;;;;;;5053966;28;20175;-65
2021/06/26 02:59:13;;;;;;;5.00;4.60;;;20.30;61.10;;;;;;5054779;28;20171;-65
2021/06/26 03:01:44;;;;;;;4.80;4.40;;;20.30;61.20;;;;;;5054415;28;20175;-65
2021/06/26 03:04:10;;;;;;;4.72;4.32;;;20.30;61.10;;;;;;5054262;28;20202;-65
2021/06/26 03:06:35;;;;;;;4.82;4.53;;;20.30;61.10;;;;;;5054367;28;20604;-65
2021/06/26 03:09:01;;;;;;;5.20;4.80;;;20.30;61.10;;;;;;5054737;28;20261;-64
2021/06/26 03:11:26;;;;;;;4.75;4.40;;;20.30;61.10;;;;;;5053952;28;20228;-65
2021/06/26 03:13:52;;;;;;;5.10;4.70;;;20.30;61.10;;;;;;5054249;28;20261;-65
2021/06/26 03:16:17;;;;;;;5.03;4.53;;;20.30;61.00;;;;;;5054336;28;20203;-65
2021/06/26 03:18:43;;;;;;;4.82;4.43;;;20.30;61.10;;;;;;5053282;28;20249;-65
2021/06/26 03:21:12;;;;;;;5.15;4.75;;;20.30;61.10;;;;;;5054268;28;20178;-64
2021/06/26 03:23:38;;;;;;;5.07;4.68;;;20.30;61.10;;;;;;5054144;28;20171;-64
2021/06/26 03:26:05;;;;;;;4.78;4.38;;;20.30;61.10;;;;;;5053702;28;20221;-64
2021/06/26 03:28:31;;;;;;;4.60;4.30;;;20.30;61.10;;;;;;5053889;28;20308;-64
2021/06/26 03:30:56;;;;;;;5.07;4.68;;;20.30;61.10;;;;;;5053760;28;20305;-64
2021/06/26 03:33:22;;;;;;;4.95;4.55;;;20.30;61.10;;;;;;5053844;28;20193;-65
2021/06/26 03:35:48;;;;;;;4.40;4.07;;;20.30;61.10;;;;;;5053691;28;20211;-66
2021/06/26 03:38:13;;;;;;;4.50;4.10;;;20.20;61.00;;;;;;5053403;28;20163;-66
2021/06/26 03:40:38;;;;;;;5.47;5.03;;;20.20;61.00;;;;;;5053619;28;20171;-66
2021/06/26 03:43:04;;;;;;;4.10;3.80;;;20.30;61.10;;;;;;5053998;28;20252;-66
2021/06/26 03:45:29;;;;;;;4.97;4.57;;;20.30;61.10;;;;;;5052867;28;20718;-65
2021/06/26 03:47:55;;;;;;;5.03;4.63;;;20.20;61.00;;;;;;5054029;28;20630;-65
2021/06/26 03:50:21;;;;;;;4.88;4.47;;;20.20;61.00;;;;;;5053821;28;20244;-65
2021/06/26 03:52:46;;;;;;;4.63;4.32;;;20.20;61.00;;;;;;5052855;28;20166;-65
2021/06/26 03:55:12;;;;;;;5.00;4.60;;;20.20;61.00;;;;;;5053639;28;20211;-65
2021/06/26 03:57:37;;;;;;;5.07;4.68;;;20.20;61.00;;;;;;5053358;28;20619;-66
2021/06/26 04:00:05;;;;;;;4.70;4.30;;;20.20;61.10;;;;;;5052901;28;20182;-65
2021/06/26 04:02:30;;;;;;;3.90;3.60;;;20.30;61.00;;;;;;5053481;28;20174;-65
2021/06/26 04:04:56;;;;;;;5.07;4.68;;;20.30;61.00;;;;;;5053460;28;20171;-65
2021/06/26 04:07:21;;;;;;;5.00;4.60;;;20.30;61.10;;;;;;5052980;28;20653;-65
2021/06/26 04:09:47;;;;;;;5.20;4.80;;;20.30;61.10;;;;;;5053194;28;20332;-65
2021/06/26 04:12:12;;;;;;;4.50;4.20;;;20.20;61.10;;;;;;5053406;28;20171;-65
2021/06/26 04:14:38;;;;;;;4.75;4.35;;;20.30;61.10;;;;;;5052233;28;20356;-65
2021/06/26 04:17:03;;;;;;;5.35;4.40;;;20.20;61.10;;;;;;5053273;28;20163;-65
2021/06/26 04:19:29;;;;;;;4.47;4.07;;;20.30;61.10;;;;;;5053350;28;20186;-65
2021/06/26 04:21:54;;;;;;;4.45;4.10;;;20.30;61.10;;;;;;5052682;28;20610;-65
2021/06/26 04:24:20;;;;;;;5.55;4.85;;;20.30;61.10;;;;;;5053014;28;20579;-65
2021/06/26 04:26:45;;;;;;;4.78;4.35;;;20.30;61.10;;;;;;5052994;28;20211;-64
2021/06/26 04:29:11;;;;;;;4.60;4.25;;;20.30;61.10;;;;;;5052121;28;20661;-64
2021/06/26 04:31:36;;;;;;;4.93;4.53;;;20.30;61.10;;;;;;5051966;28;20197;-65
2021/06/26 04:34:02;;;;;;;4.57;4.20;;;20.30;61.10;;;;;;5053179;28;20198;-65
2021/06/26 04:36:27;;;;;;;5.63;5.13;;;20.30;61.10;;;;;;5052241;28;20241;-66
2021/06/26 04:38:53;;;;;;;4.60;4.20;;;20.30;61.10;;;;;;5052633;28;20250;-66
2021/06/26 04:41:18;;;;;;;4.15;3.85;;;20.30;61.10;;;;;;5052311;28;20193;-65
2021/06/26 04:43:44;;;;;;;4.50;4.10;;;20.30;61.10;;;;;;5052562;28;20543;-66
2021/06/26 04:46:10;;;;;;;4.18;3.88;;;20.40;61.10;;;;;;5052662;28;20232;-66
2021/06/26 04:48:36;;;;;;;4.38;4.07;;;20.30;61.10;;;;;;5051607;28;20175;-65
2021/06/26 04:51:02;;;;;;;4.70;4.30;;;20.30;61.10;;;;;;5018539;28;20190;-65
2021/06/26 04:53:27;;;;;;;4.97;4.55;;;20.30;61.10;;;;;;5052538;28;20513;-65
2021/06/26 04:55:53;;;;;;;5.07;4.32;;;20.30;61.10;;;;;;5051540;28;20264;-65
2021/06/26 04:58:22;;;;;;;4.53;4.22;;;20.30;61.10;;;;;;5052552;28;20253;-65
2021/06/26 05:00:50;;;;;;;4.07;3.78;;;20.20;61.10;;;;;;5052418;28;20540;-65
2021/06/26 05:03:17;;;;;;;5.28;4.88;;;20.30;61.10;;;;;;5051954;28;20171;-65
2021/06/26 05:05:43;;;;;;;4.13;3.83;;;20.30;61.10;;;;;;5052237;28;20183;-64
2021/06/26 05:08:08;;;;;;;4.57;4.28;;;20.30;61.10;;;;;;5052426;28;20229;-65
2021/06/26 05:10:34;;;;;;;4.43;4.13;;;20.30;61.90;;;;;;5051262;28;20626;-65
2021/06/26 05:12:59;;;;;;;4.97;4.38;;;20.30;61.20;;;;;;5052172;28;20182;-65
2021/06/26 05:15:27;;;;;;;4.53;4.22;;;20.30;61.10;;;;;;5052391;28;20253;-65
2021/06/26 05:17:52;;;;;;;4.57;4.18;;;20.30;61.10;;;;;;5051371;28;20242;-65
2021/06/26 05:20:18;;;;;;;4.15;3.85;;;20.30;61.00;;;;;;5052044;28;20656;-64
2021/06/26 05:22:43;;;;;;;4.38;4.07;;;20.30;61.10;;;;;;5051820;28;20171;-64
2021/06/26 05:25:09;;;;;;;4.40;4.10;;;20.30;61.00;;;;;;5051324;28;20268;-64
2021/06/26 05:27:35;;;;;;;4.40;4.10;;;20.30;61.00;;;;;;5051356;28;20182;-64
2021/06/26 05:30:00;;;;;;;4.30;3.90;;;20.30;61.00;;;;;;5051940;28;20227;-63
2021/06/26 05:32:26;;;;;;;4.95;4.55;;;20.30;61.00;;;;;;5051299;28;20625;-65
2021/06/26 05:34:51;;;;;;;4.60;4.20;;;20.40;61.10;;;;;;5051709;28;20306;-66
2021/06/26 05:37:17;;;;;;;4.65;4.25;;;20.30;61.00;;;;;;5052028;28;20177;-66
2021/06/26 05:39:42;;;;;;;5.07;4.60;;;20.30;61.00;;;;;;5050845;28;20176;-66
2021/06/26 05:42:08;;;;;;;4.60;4.30;;;20.30;61.00;;;;;;5051811;28;20649;-65
2021/06/26 05:44:33;;;;;;;4.45;4.15;;;20.40;61.10;;;;;;5051399;28;20640;-65
2021/06/26 05:46:59;;;;;;;4.53;4.13;;;20.40;61.10;;;;;;5051394;28;20194;-65
2021/06/26 05:49:24;;;;;;;4.60;4.30;;;20.30;61.10;;;;;;5051809;28;20178;-64
2021/06/26 05:51:50;;;;;;;4.72;4.38;;;20.40;61.10;;;;;;5050802;28;20179;-66
2021/06/26 05:54:15;;;;;;;5.03;4.63;;;20.40;61.10;;;;;;5051616;28;20171;-65
2021/06/26 05:56:41;;;;;;;4.20;3.90;;;20.40;61.10;;;;;;5051312;28;20214;-68
2021/06/26 05:59:07;;;;;;;4.75;4.40;;;20.40;61.10;;;;;;5050879;28;20167;-67
2021/06/26 06:01:32;;;;;;;4.63;4.32;;;20.40;61.00;;;;;;5051360;28;20194;-66
2021/06/26 06:03:58;;;;;;;4.85;4.45;;;20.40;61.10;;;;;;5051778;28;20171;-67
2021/06/26 06:06:24;;;;;;;4.70;4.30;;;20.40;61.00;;;;;;5051060;28;20236;-66
2021/06/26 06:08:49;;;;;;;4.63;4.32;;;20.40;61.00;;;;;;5051379;28;20182;-66
2021/06/26 06:11:15;;;;;;;4.95;4.55;;;20.40;61.00;;;;;;5051466;28;20183;-66
2021/06/26 06:13:40;;;;;;;4.40;4.10;;;20.50;60.90;;;;;;5050486;28;20229;-66
2021/06/26 06:16:06;;;;;;;4.68;4.28;;;20.50;60.90;;;;;;5051626;28;20280;-67
2021/06/26 06:18:31;;;;;;;5.28;4.88;;;20.40;60.90;;;;;;5051720;28;20171;-67
2021/06/26 06:20:57;;;;;;;4.63;4.22;;;20.50;60.90;;;;;;5051181;28;20641;-67
2021/06/26 06:23:23;;;;;;;4.28;3.97;;;20.50;60.90;;;;;;5051783;28;20683;-67
2021/06/26 06:25:48;;;;;;;4.85;4.45;;;20.50;60.90;;;;;;5051527;28;20183;-66
2021/06/26 06:28:14;;;;;;;5.05;4.45;;;20.50;60.90;;;;;;5051121;28;20513;-66
2021/06/26 06:30:39;;;;;;;4.93;4.55;;;20.50;60.90;;;;;;5051410;28;20624;-66
2021/06/26 06:33:05;;;;;;;4.63;4.22;;;20.50;60.90;;;;;;5051868;28;20175;-67
2021/06/26 06:35:31;;;;;;;4.60;4.20;;;20.50;61.00;;;;;;5050630;28;20293;-68
2021/06/26 06:37:57;;;;;;;4.57;4.28;;;20.50;60.90;;;;;;5051645;28;20194;-68
2021/06/26 06:40:22;;;;;;;4.13;3.83;;;20.60;61.80;;;;;;5051695;28;20668;-68
2021/06/26 06:42:48;;;;;;;4.82;4.47;;;20.60;60.90;;;;;;5050464;28;20593;-67
2021/06/26 06:45:13;;;;;;;4.65;4.25;;;20.60;60.90;;;;;;5051784;28;20637;-67
2021/06/26 06:47:39;;;;;;;4.53;4.13;;;20.60;60.90;;;;;;5051531;28;20175;-67
2021/06/26 06:50:06;;;;;;;4.78;4.38;;;20.60;60.80;;;;;;5050682;28;20175;-66
2021/06/26 06:52:31;;;;;;;4.90;4.50;;;20.60;60.80;;;;;;5051223;28;20189;-66
2021/06/26 06:54:57;;;;;;;4.80;4.40;;;20.60;60.80;;;;;;5051796;28;20206;-66
2021/06/26 06:57:24;;;;;;;4.68;4.32;;;20.60;60.80;;;;;;5055008;28;20185;-66
2021/06/26 06:59:50;;;;;;;4.32;4.03;;;20.60;60.80;;;;;;5055036;28;20183;-67
2021/06/26 07:02:16;;;;;;;4.72;4.32;;;20.60;60.80;;;;;;5054550;28;20202;-66
2021/06/26 07:04:41;;;;;;;4.43;4.13;;;20.60;60.90;;;;;;5054890;28;20532;-66
2021/06/26 07:07:07;;;;;;;4.45;4.05;;;20.60;60.90;;;;;;5054901;28;20490;-66
2021/06/26 07:09:32;;;;;;;4.85;4.45;;;20.60;61.00;;;;;;5053579;28;20179;-66
2021/06/26 07:11:58;;;;;;;5.25;4.85;;;20.70;60.90;;;;;;5054568;28;20593;-66
2021/06/26 07:14:24;;;;;;;4.10;3.75;;;20.70;61.00;;;;;;5054736;28;20194;-66
2021/06/26 07:16:50;;;;;;;4.63;4.22;;;20.70;61.00;;;;;;5053346;28;20641;-66
2021/06/26 07:19:15;;;;;;;4.30;4.00;;;20.70;60.90;;;;;;5054622;28;20171;-66
2021/06/26 07:21:41;;;;;;;5.20;4.80;;;20.70;60.80;;;;;;5054253;28;20601;-66
2021/06/26 07:24:07;;;;;;;4.90;4.50;;;20.70;60.80;;;;;;5053691;28;20171;-65
2021/06/26 07:26:32;;;;;;;4.95;4.55;;;20.70;60.80;;;;;;5036075;28;20329;-65
2021/06/26 07:28:58;;;;;;;4.97;4.50;;;20.70;60.80;;;;;;5054232;28;20183;-65
2021/06/26 07:31:23;;;;;;;4.97;4.57;;;20.70;60.80;;;;;;5053701;28;20216;-65
2021/06/26 07:33:49;;;;;;;4.95;4.53;;;20.70;60.60;;;;;;5053995;28;20742;-67
2021/06/26 07:36:14;;;;;;;3.97;3.70;;;20.80;60.70;;;;;;5054124;28;20643;-68
2021/06/26 07:38:40;;;;;;;4.57;4.28;;;20.80;60.70;;;;;;5052991;28;20253;-62
2021/06/26 07:41:05;;;;;;;4.80;4.40;;;20.80;60.70;;;;;;5053731;28;20644;-63
2021/06/26 07:43:31;;;;;;;5.40;4.97;;;20.90;60.90;;;;;;5053530;28;20178;-63
2021/06/26 07:45:56;;;;;;;4.88;4.03;;;20.90;61.00;;;;;;5053124;28;20175;-64
2021/06/26 07:48:22;;;;;;;4.72;4.32;;;20.90;60.80;;;;;;5054110;28;20168;-64
2021/06/26 07:50:50;;;;;;;4.07;3.78;;;20.90;60.80;;;;;;5053546;28;20167;-64
2021/06/26 07:53:17;;;;;;;6.55;4.63;;;20.90;60.80;;;;;;5053265;28;20175;-64
2021/06/26 07:55:42;;;;;;;4.85;4.45;;;20.90;60.80;;;;;;5053203;28;20213;-64
2021/06/26 07:58:08;;;;;;;4.97;4.57;;;20.90;60.90;;;;;;5053821;28;20168;-65
2021/06/26 08:00:33;;;;;;;4.00;3.70;;;20.90;60.90;;;;;;5052723;28;20205;-64
2021/06/26 08:02:59;;;;;;;4.63;4.15;;;20.90;60.90;;;;;;5053685;28;20680;-64
2021/06/26 08:05:24;;;;;;;4.53;4.13;;;20.90;60.90;;;;;;5052641;28;20207;-64
2021/06/26 08:07:49;;;;;;;4.47;4.10;;;20.90;60.90;;;;;;5052189;28;20183;-63
2021/06/26 08:10:15;;;;;;;4.80;4.40;;;20.90;60.90;;;;;;5053264;28;20202;-64
2021/06/26 08:12:41;;;;;;;4.50;4.20;;;20.90;60.80;;;;;;5052532;28;20621;-64
2021/06/26 08:15:06;;;;;;;4.20;3.85;;;21.00;60.90;;;;;;5053315;28;20206;-65
2021/06/26 08:17:32;;;;;;;4.63;4.22;;;21.00;60.90;;;;;;5053096;28;20574;-64
2021/06/26 08:19:57;;;;;;;4.40;4.07;;;21.00;60.90;;;;;;5052511;28;20228;-64
2021/06/26 08:22:23;;;;;;;5.47;4.97;;;21.00;60.90;;;;;;5053027;28;20171;-64
2021/06/26 08:24:48;;;;;;;6.00;4.75;;;21.00;60.90;;;;;;5052785;28;20203;-64
2021/06/26 08:27:14;;;;;;;4.78;4.43;;;21.10;60.90;;;;;;5052545;28;20262;-63
2021/06/26 08:29:39;;;;;;;4.72;4.32;;;21.10;60.90;;;;;;5052506;28;20223;-64
2021/06/26 08:32:06;;;;;;;5.80;4.47;;;21.10;60.80;;;;;;5053015;28;20191;-64
2021/06/26 08:34:31;;;;;;;4.93;4.50;;;21.10;60.90;;;;;;5052061;28;20171;-65
2021/06/26 08:36:56;;;;;;;4.55;4.15;;;21.10;60.90;;;;;;5052858;28;20624;-66
2021/06/26 08:39:22;;;;;;;5.95;4.47;;;21.10;60.90;;;;;;5052976;28;20179;-67
2021/06/26 08:41:51;;;;;;;5.40;4.60;;;21.20;60.90;;;;;;5051749;28;20228;-65
2021/06/26 08:44:17;;;;;;;6.05;4.38;;;21.20;60.90;;;;;;5034986;28;20202;-65
2021/06/26 08:46:49;;;;;;;5.20;4.80;;;21.20;60.90;;;;;;5052779;28;20250;-65
2021/06/26 08:49:15;;;;;;;6.43;4.97;;;21.20;60.90;;;;;;5052149;28;20194;-61
2021/06/26 08:51:41;;;;;;;5.50;4.80;;;21.20;60.90;;;;;;5052253;28;20523;-62
2021/06/26 08:54:14;;;;;;;5.90;4.82;;;21.30;60.90;;;;;;5052516;28;20198;-62
2021/06/26 08:56:43;;;;;;;5.25;4.75;;;21.30;61.00;;;;;;5051789;28;20210;-63
2021/06/26 08:59:09;;;;;;;7.75;4.40;;;21.30;60.90;;;;;;5052261;28;20186;-63
2021/06/26 09:01:38;;;;;;;4.80;4.40;;;21.40;61.00;;;;;;5051740;28;20539;-66
2021/06/26 09:04:15;;;;;;;6.25;4.85;;;21.40;61.00;;;;;;5052651;28;20167;-65
2021/06/26 09:06:56;;;;;;;5.68;5.07;;;21.40;61.10;;;;;;5054046;28;20221;-65
2021/06/26 09:09:37;;;;;;;5.10;4.60;;;21.40;61.10;;;;;;5055571;28;20170;-65
2021/06/26 09:12:06;;;;;;;5.68;4.97;;;21.40;61.00;;;;;;5055773;28;20257;-65
2021/06/26 09:14:35;;;;;;;5.30;4.88;;;21.40;60.90;;;;;;5053620;28;20175;-65
2021/06/26 09:17:01;;;;;;;5.30;4.72;;;21.50;61.00;;;;;;5071184;28;20220;-65
2021/06/26 09:19:28;;;;;;;5.25;4.80;;;21.50;60.90;;;;;;5072269;28;20182;-65
2021/06/26 09:22:11;;;;;;;6.07;4.90;;;21.50;60.90;;;;;;5072093;28;20187;-64
2021/06/26 09:24:44;;;;;;;5.80;5.05;;;21.50;60.90;;;;;;5056718;28;20571;-64
2021/06/26 09:27:10;;;;;;;6.32;5.20;;;21.50;60.90;;;;;;5052059;28;20186;-64
2021/06/26 09:29:36;;;;;;;5.70;5.20;;;21.50;60.90;;;;;;5051412;28;20226;-64
2021/06/26 09:32:04;;;;;;;6.18;5.07;;;21.50;60.80;;;;;;5050764;28;20253;-65
2021/06/26 09:34:43;;;;;;;6.47;5.05;;;21.60;60.80;;;;;;5051054;28;20175;-66
2021/06/26 09:37:13;;;;;;;7.85;5.63;;;21.60;60.80;;;;;;5050691;28;20244;-66
2021/06/26 09:39:40;;;;;;;5.60;4.95;;;21.60;60.70;;;;;;5050535;28;20175;-66
2021/06/26 09:42:20;;;;;;;5.65;5.15;;;21.60;60.70;;;;;;5069485;28;20251;-66
2021/06/26 09:45:09;;;;;;;6.57;5.35;;;21.70;60.70;;;;;;5070409;28;20239;-66
2021/06/26 09:47:39;;;;;;;6.78;5.32;;;21.70;60.60;;;;;;5071045;28;20181;-66
2021/06/26 09:50:24;;;;;;;5.95;5.35;;;21.70;60.60;;;;;;5071562;28;20178;-65
2021/06/26 09:52:51;;;;;;;6.15;5.65;;;21.80;60.60;;;;;;5070364;28;20290;-65
2021/06/26 09:55:28;;;;;;;6.00;5.50;;;21.80;60.40;;;;;;5071213;28;20233;-65
2021/06/26 09:57:56;;;;;;;5.80;5.30;;;21.80;60.40;;;;;;5070622;28;20196;-65
2021/06/26 10:00:26;;;;;;;6.13;5.63;;;21.80;60.40;;;;;;5071270;28;20204;-65
2021/06/26 10:02:51;;;;;;;5.72;5.22;;;21.80;60.40;;;;;;5070762;28;20163;-66
2021/06/26 10:05:20;;;;;;;5.80;5.20;;;21.90;60.30;;;;;;5070531;28;20578;-65
2021/06/26 10:07:47;;;;;;;7.03;6.20;;;21.90;60.20;;;;;;5070670;28;20178;-65
2021/06/26 10:10:17;;;;;;;7.05;6.32;;;21.90;60.20;;;;;;5071299;28;20184;-65
2021/06/26 10:12:42;;;;;;;6.15;5.65;;;22.00;60.30;;;;;;5070247;28;20246;-66
2021/06/26 10:15:09;;;;;;;6.28;5.68;;;21.90;60.20;;;;;;5061521;28;20293;-65
2021/06/26 10:17:35;;;;;;;6.63;6.00;;;22.00;60.20;;;;;;5049641;28;20270;-65
2021/06/26 10:20:02;;;;;;;6.22;5.70;;;22.00;60.20;;;;;;5050058;28;20519;-65
2021/06/26 10:22:28;;;;;;;6.38;5.80;;;22.00;60.20;;;;;;5033036;28;20547;-64
2021/06/26 10:24:53;;;;;;;6.57;6.07;;;22.00;60.20;;;;;;5032575;28;20171;-65
2021/06/26 10:27:21;;;;;;;7.50;6.22;;;22.00;60.20;;;;;;5032179;28;20175;-65
2021/06/26 10:29:46;;;;;;;6.28;5.68;;;22.00;60.00;;;;;;5016175;28;1010080;-64
2021/06/26 10:32:16;;;;;;;6.35;5.75;;;22.00;60.10;;;;;;5055651;28;20179;-65
2021/06/26 10:34:48;;;;;;;7.20;6.55;;;22.10;60.10;;;;;;5054568;28;20178;-65
2021/06/26 10:37:18;;;;;;;6.53;6.03;;;22.10;60.00;;;;;;5055696;28;20202;-66
2021/06/26 10:39:44;;;;;;;6.43;5.78;;;22.10;60.10;;;;;;5054978;28;20182;-65
2021/06/26 10:42:10;;;;;;;7.18;6.57;;;22.10;60.10;;;;;;5054721;28;20175;-66
2021/06/26 10:44:50;;;;;;;7.40;6.80;;;22.10;60.00;;;;;;5055071;28;20179;-66
2021/06/26 10:47:35;;;;;;;6.35;5.88;;;22.10;60.00;;;;;;5054547;28;20183;-66
2021/06/26 10:50:18;;;;;;;6.40;5.90;;;22.00;60.20;;;;;;5055223;28;20167;-63
2021/06/26 10:52:56;;;;;;;7.50;6.88;;;22.10;60.20;;;;;;5054615;28;20183;-63
2021/06/26 10:55:28;;;;;;;6.60;6.07;;;22.10;60.00;;;;;;5054109;28;20706;-67
2021/06/26 10:57:54;;;;;;;6.82;6.28;;;22.10;60.00;;;;;;5055045;28;20235;-66
2021/06/26 11:00:33;;;;;;;7.65;6.75;;;22.10;60.10;;;;;;5055111;28;20224;-65
2021/06/26 11:02:58;;;;;;;7.30;6.63;;;22.10;60.20;;;;;;5054132;28;20586;-66
2021/06/26 11:05:34;;;;;;;7.15;6.55;;;22.10;60.20;;;;;;5054862;28;20269;-66
2021/06/26 11:08:00;;;;;;;6.90;6.30;;;22.10;60.20;;;;;;5054743;28;20206;-65
2021/06/26 11:10:26;;;;;;;7.30;6.70;;;22.20;60.10;;;;;;5054149;28;20206;-66
2021/06/26 11:12:51;;;;;;;7.95;7.20;;;22.20;60.10;;;;;;5054371;28;20184;-66
2021/06/26 11:15:27;;;;;;;7.00;6.50;;;22.10;60.00;;;;;;5064058;28;20233;-66
2021/06/26 11:17:53;;;;;;;8.20;7.50;;;22.20;60.10;;;;;;5074532;28;20178;-66
2021/06/26 11:20:18;;;;;;;7.70;7.00;;;22.20;60.00;;;;;;5074840;28;20174;-66
2021/06/26 11:22:51;;;;;;;7.63;6.90;;;22.20;60.10;;;;;;5073688;28;20269;-65
2021/06/26 11:25:17;;;;;;;7.65;6.93;;;22.20;59.90;;;;;;5074436;28;20690;-65
2021/06/26 11:27:42;;;;;;;7.57;6.97;;;22.30;59.90;;;;;;5074089;28;20175;-65
2021/06/26 11:30:09;;;;;;;7.63;6.93;;;22.30;59.80;;;;;;5073551;28;20297;-65
2021/06/26 11:32:35;;;;;;;7.60;6.78;;;22.30;59.80;;;;;;5074341;28;20185;-67
2021/06/26 11:35:11;;;;;;;7.35;6.75;;;22.40;59.80;;;;;;5074141;28;20206;-67
2021/06/26 11:37:41;;;;;;;8.23;7.53;;;22.30;59.70;;;;;;5073120;28;20174;-68
2021/06/26 11:40:13;;;;;;;8.45;7.22;;;22.30;59.70;;;;;;5056049;28;20178;-67
2021/06/26 11:42:42;;;;;;;9.52;8.32;;;22.30;59.90;;;;;;5073887;28;20175;-64
2021/06/26 11:45:12;;;;;;;12.10;8.10;;;22.20;60.00;;;;;;5073407;28;20255;-63
2021/06/26 11:47:38;;;;;;;9.95;8.40;;;22.20;60.00;;;;;;5073803;28;20186;-61
2021/06/26 11:50:11;;;;;;;13.32;8.73;;;22.20;60.10;;;;;;5074207;28;20177;-64
2021/06/26 11:52:37;;;;;;;10.15;9.02;;;22.20;60.10;;;;;;5055145;28;20277;-64
2021/06/26 11:55:02;;;;;;;14.95;9.27;;;22.30;60.20;;;;;;5073628;28;20293;-61
2021/06/26 11:57:29;;;;;;;13.20;9.85;;;22.20;60.10;;;;;;5073076;28;20181;-61
2021/06/26 11:59:54;;;;;;;14.40;9.50;;;22.20;60.30;;;;;;5073724;28;20179;-61
2021/06/26 12:02:35;;;;;;;9.88;8.88;;;22.20;60.50;;;;;;5073521;28;20177;-62
2021/06/26 12:05:01;;;;;;;14.27;8.98;;;22.20;60.50;;;;;;5072959;28;20235;-61
2021/06/26 12:07:36;;;;;;;11.10;8.35;;;22.20;60.50;;;;;;5073455;28;20201;-61
2021/06/26 12:10:06;;;;;;;12.50;9.13;;;22.30;60.50;;;;;;5073788;28;20187;-65
2021/06/26 12:12:36;;;;;;;13.63;9.63;;;22.20;60.40;;;;;;5072571;28;20179;-65
2021/06/26 12:15:02;;;;;;;13.25;9.20;;;22.20;60.40;;;;;;5047593;28;20589;-64
2021/06/26 12:17:28;;;;;;;11.40;9.15;;;22.20;60.50;;;;;;5053503;28;20225;-65
2021/06/26 12:20:01;;;;;;;9.57;8.57;;;22.20;60.40;;;;;;5052293;28;20183;-63
2021/06/26 12:22:28;;;;;;;12.18;9.15;;;22.20;60.40;;;;;;5053286;28;20179;-63
2021/06/26 12:25:03;;;;;;;13.02;9.68;;;22.20;60.30;;;;;;5053182;28;20179;-65
2021/06/26 12:27:29;;;;;;;13.50;10.35;;;22.20;60.30;;;;;;5036570;28;20178;-65
2021/06/26 12:29:59;;;;;;;13.60;9.43;;;22.20;60.20;;;;;;5053148;28;20226;-66
2021/06/26 12:32:26;;;;;;;10.73;9.35;;;22.10;60.00;;;;;;5053258;28;20210;-66
2021/06/26 12:34:52;;;;;;;13.45;10.57;;;22.20;60.10;;;;;;5034914;28;20245;-66
2021/06/26 12:37:26;;;;;;;10.00;8.98;;;22.10;60.10;;;;;;5053191;28;20214;-67
2021/06/26 12:40:00;;;;;;;11.13;9.80;;;22.20;60.10;;;;;;5034310;28;20281;-67
2021/06/26 12:42:25;;;;;;;10.57;9.18;;;22.20;60.10;;;;;;5053420;28;20352;-67
2021/06/26 12:44:57;;;;;;;9.93;8.93;;;22.20;59.80;;;;;;5052821;28;20209;-67